sensor_id;sensor_type;location;lat;lon;timestamp;P1;durP1;ratioP1;P2;durP2;ratioP2
30096;SDS011;16915;51.466;3.610;2023-04-24T00:01:39;17.05;;;4.82;;
30096;SDS011;16915;51.466;3.610;2023-04-24T00:04:05;13.27;;;4.80;;
30096;SDS011;16915;51.466;3.610;2023-04-24T00:06:32;13.57;;;4.13;;
30096;SDS011;16915;51.466;3.610;2023-04-24T00:09:02;11.18;;;4.22;;
30096;SDS011;16915;51.466;3.610;2023-04-24T00:11:30;11.77;;;4.18;;
30096;SDS011;16915;51.466;3.610;2023-04-24T00:13:56;13.73;;;3.55;;
30096;SDS011;16915;51.466;3.610;2023-04-24T00:16:22;16.83;;;3.65;;
30096;SDS011;16915;51.466;3.610;2023-04-24T00:18:48;15.77;;;3.38;;
30096;SDS011;16915;51.466;3.610;2023-04-24T00:21:14;13.02;;;3.17;;
30096;SDS011;16915;51.466;3.610;2023-04-24T00:23:42;9.70;;;2.95;;
30096;SDS011;16915;51.466;3.610;2023-04-24T00:26:08;9.48;;;2.13;;
30096;SDS011;16915;51.466;3.610;2023-04-24T00:28:34;12.93;;;2.63;;
30096;SDS011;16915;51.466;3.610;2023-04-24T00:31:00;9.50;;;2.95;;
30096;SDS011;16915;51.466;3.610;2023-04-24T00:33:25;9.68;;;2.38;;
30096;SDS011;16915;51.466;3.610;2023-04-24T00:35:51;6.97;;;1.73;;
30096;SDS011;16915;51.466;3.610;2023-04-24T00:38:16;6.60;;;1.58;;
30096;SDS011;16915;51.466;3.610;2023-04-24T00:40:42;8.73;;;1.55;;
30096;SDS011;16915;51.466;3.610;2023-04-24T00:43:07;8.68;;;1.50;;
30096;SDS011;16915;51.466;3.610;2023-04-24T00:45:33;6.32;;;1.30;;
30096;SDS011;16915;51.466;3.610;2023-04-24T00:47:59;15.27;;;1.70;;
30096;SDS011;16915;51.466;3.610;2023-04-24T00:50:25;8.35;;;1.52;;
30096;SDS011;16915;51.466;3.610;2023-04-24T00:52:51;7.10;;;1.60;;
30096;SDS011;16915;51.466;3.610;2023-04-24T00:55:17;5.10;;;1.38;;
30096;SDS011;16915;51.466;3.610;2023-04-24T00:57:46;6.13;;;1.35;;
30096;SDS011;16915;51.466;3.610;2023-04-24T01:00:13;6.20;;;1.48;;
30096;SDS011;16915;51.466;3.610;2023-04-24T01:02:40;4.32;;;1.52;;
30096;SDS011;16915;51.466;3.610;2023-04-24T01:05:11;9.52;;;1.90;;
30096;SDS011;16915;51.466;3.610;2023-04-24T01:07:38;4.22;;;1.58;;
30096;SDS011;16915;51.466;3.610;2023-04-24T01:10:05;3.17;;;1.67;;
30096;SDS011;16915;51.466;3.610;2023-04-24T01:12:33;5.28;;;1.80;;
30096;SDS011;16915;51.466;3.610;2023-04-24T01:14:58;6.22;;;1.70;;
30096;SDS011;16915;51.466;3.610;2023-04-24T01:17:24;5.50;;;1.95;;
30096;SDS011;16915;51.466;3.610;2023-04-24T01:19:50;6.63;;;2.03;;
30096;SDS011;16915;51.466;3.610;2023-04-24T01:22:18;8.57;;;3.00;;
30096;SDS011;16915;51.466;3.610;2023-04-24T01:24:44;9.10;;;3.60;;
30096;SDS011;16915;51.466;3.610;2023-04-24T01:27:10;11.60;;;3.88;;
30096;SDS011;16915;51.466;3.610;2023-04-24T01:29:36;8.10;;;3.03;;
30096;SDS011;16915;51.466;3.610;2023-04-24T01:32:02;11.27;;;3.42;;
30096;SDS011;16915;51.466;3.610;2023-04-24T01:34:28;9.43;;;3.00;;
30096;SDS011;16915;51.466;3.610;2023-04-24T01:36:54;11.50;;;2.67;;
30096;SDS011;16915;51.466;3.610;2023-04-24T01:39:21;12.00;;;2.75;;
30096;SDS011;16915;51.466;3.610;2023-04-24T01:41:48;8.77;;;2.25;;
30096;SDS011;16915;51.466;3.610;2023-04-24T01:44:15;6.53;;;2.05;;
30096;SDS011;16915;51.466;3.610;2023-04-24T01:46:41;8.50;;;2.50;;
30096;SDS011;16915;51.466;3.610;2023-04-24T01:49:06;10.48;;;2.42;;
30096;SDS011;16915;51.466;3.610;2023-04-24T01:51:32;10.35;;;2.42;;
30096;SDS011;16915;51.466;3.610;2023-04-24T01:53:58;8.27;;;2.60;;
30096;SDS011;16915;51.466;3.610;2023-04-24T01:56:23;9.18;;;2.20;;
30096;SDS011;16915;51.466;3.610;2023-04-24T01:58:50;12.00;;;2.50;;
30096;SDS011;16915;51.466;3.610;2023-04-24T02:01:23;8.02;;;2.55;;
30096;SDS011;16915;51.466;3.610;2023-04-24T02:03:49;7.32;;;3.28;;
30096;SDS011;16915;51.466;3.610;2023-04-24T02:06:15;8.98;;;2.85;;
30096;SDS011;16915;51.466;3.610;2023-04-24T02:08:41;6.30;;;2.55;;
30096;SDS011;16915;51.466;3.610;2023-04-24T02:11:08;7.90;;;3.15;;
30096;SDS011;16915;51.466;3.610;2023-04-24T02:13:34;12.40;;;4.10;;
30096;SDS011;16915;51.466;3.610;2023-04-24T02:16:00;8.98;;;3.45;;
30096;SDS011;16915;51.466;3.610;2023-04-24T02:18:26;9.15;;;4.18;;
30096;SDS011;16915;51.466;3.610;2023-04-24T02:20:51;9.00;;;3.22;;
30096;SDS011;16915;51.466;3.610;2023-04-24T02:23:17;9.90;;;3.40;;
30096;SDS011;16915;51.466;3.610;2023-04-24T02:25:43;11.57;;;3.90;;
30096;SDS011;16915;51.466;3.610;2023-04-24T02:28:08;14.25;;;3.67;;
30096;SDS011;16915;51.466;3.610;2023-04-24T02:30:34;13.55;;;4.43;;
30096;SDS011;16915;51.466;3.610;2023-04-24T02:32:59;9.88;;;4.47;;
30096;SDS011;16915;51.466;3.610;2023-04-24T02:35:25;6.95;;;3.78;;
30096;SDS011;16915;51.466;3.610;2023-04-24T02:37:50;15.63;;;4.05;;
30096;SDS011;16915;51.466;3.610;2023-04-24T02:40:16;9.68;;;3.63;;
30096;SDS011;16915;51.466;3.610;2023-04-24T02:42:42;8.10;;;4.18;;
30096;SDS011;16915;51.466;3.610;2023-04-24T02:45:07;12.90;;;4.38;;
30096;SDS011;16915;51.466;3.610;2023-04-24T02:47:33;16.63;;;4.72;;
30096;SDS011;16915;51.466;3.610;2023-04-24T02:49:59;13.05;;;4.53;;
30096;SDS011;16915;51.466;3.610;2023-04-24T02:52:24;10.85;;;4.80;;
30096;SDS011;16915;51.466;3.610;2023-04-24T02:54:50;13.18;;;5.20;;
30096;SDS011;16915;51.466;3.610;2023-04-24T02:57:15;14.05;;;4.82;;
30096;SDS011;16915;51.466;3.610;2023-04-24T02:59:41;16.42;;;5.10;;
30096;SDS011;16915;51.466;3.610;2023-04-24T03:02:06;10.07;;;4.88;;
30096;SDS011;16915;51.466;3.610;2023-04-24T03:04:32;14.00;;;5.20;;
30096;SDS011;16915;51.466;3.610;2023-04-24T03:06:57;19.05;;;6.20;;
30096;SDS011;16915;51.466;3.610;2023-04-24T03:09:23;15.88;;;5.05;;
30096;SDS011;16915;51.466;3.610;2023-04-24T03:11:49;10.05;;;5.20;;
30096;SDS011;16915;51.466;3.610;2023-04-24T03:14:15;6.20;;;4.70;;
30096;SDS011;16915;51.466;3.610;2023-04-24T03:16:41;13.27;;;4.70;;
30096;SDS011;16915;51.466;3.610;2023-04-24T03:19:06;17.10;;;6.10;;
30096;SDS011;16915;51.466;3.610;2023-04-24T03:21:32;19.20;;;7.10;;
30096;SDS011;16915;51.466;3.610;2023-04-24T03:23:58;16.95;;;6.90;;
30096;SDS011;16915;51.466;3.610;2023-04-24T03:26:23;14.38;;;6.75;;
30096;SDS011;16915;51.466;3.610;2023-04-24T03:28:49;13.60;;;6.68;;
30096;SDS011;16915;51.466;3.610;2023-04-24T03:31:15;12.55;;;6.07;;
30096;SDS011;16915;51.466;3.610;2023-04-24T03:33:41;17.02;;;7.63;;
30096;SDS011;16915;51.466;3.610;2023-04-24T03:36:07;17.17;;;7.05;;
30096;SDS011;16915;51.466;3.610;2023-04-24T03:38:33;17.85;;;7.40;;
30096;SDS011;16915;51.466;3.610;2023-04-24T03:40:58;14.20;;;6.97;;
30096;SDS011;16915;51.466;3.610;2023-04-24T03:43:24;16.15;;;7.45;;
30096;SDS011;16915;51.466;3.610;2023-04-24T03:45:50;19.45;;;7.97;;
30096;SDS011;16915;51.466;3.610;2023-04-24T03:48:15;16.13;;;8.32;;
30096;SDS011;16915;51.466;3.610;2023-04-24T03:50:41;17.60;;;8.80;;
30096;SDS011;16915;51.466;3.610;2023-04-24T03:53:06;13.13;;;8.25;;
30096;SDS011;16915;51.466;3.610;2023-04-24T03:55:32;21.63;;;8.98;;
30096;SDS011;16915;51.466;3.610;2023-04-24T03:57:57;19.15;;;8.07;;
30096;SDS011;16915;51.466;3.610;2023-04-24T04:00:23;22.25;;;8.45;;
30096;SDS011;16915;51.466;3.610;2023-04-24T04:02:49;16.65;;;8.18;;
30096;SDS011;16915;51.466;3.610;2023-04-24T04:05:15;18.58;;;8.30;;
30096;SDS011;16915;51.466;3.610;2023-04-24T04:07:40;25.50;;;8.10;;
30096;SDS011;16915;51.466;3.610;2023-04-24T04:10:06;17.17;;;8.35;;
30096;SDS011;16915;51.466;3.610;2023-04-24T04:12:32;21.70;;;8.57;;
30096;SDS011;16915;51.466;3.610;2023-04-24T04:14:58;18.50;;;8.48;;
30096;SDS011;16915;51.466;3.610;2023-04-24T04:17:23;18.27;;;8.43;;
30096;SDS011;16915;51.466;3.610;2023-04-24T04:19:49;17.63;;;8.05;;
30096;SDS011;16915;51.466;3.610;2023-04-24T04:22:15;18.42;;;9.23;;
30096;SDS011;16915;51.466;3.610;2023-04-24T04:24:41;19.58;;;8.65;;
30096;SDS011;16915;51.466;3.610;2023-04-24T04:27:06;18.58;;;9.43;;
30096;SDS011;16915;51.466;3.610;2023-04-24T04:29:33;17.63;;;8.90;;
30096;SDS011;16915;51.466;3.610;2023-04-24T04:31:59;23.45;;;9.27;;
30096;SDS011;16915;51.466;3.610;2023-04-24T04:34:25;19.58;;;9.38;;
30096;SDS011;16915;51.466;3.610;2023-04-24T04:36:50;19.13;;;10.18;;
30096;SDS011;16915;51.466;3.610;2023-04-24T04:39:16;18.98;;;10.18;;
30096;SDS011;16915;51.466;3.610;2023-04-24T04:41:43;22.00;;;9.68;;
30096;SDS011;16915;51.466;3.610;2023-04-24T04:44:11;19.55;;;9.00;;
30096;SDS011;16915;51.466;3.610;2023-04-24T04:46:37;16.60;;;8.95;;
30096;SDS011;16915;51.466;3.610;2023-04-24T04:49:03;20.70;;;10.05;;
30096;SDS011;16915;51.466;3.610;2023-04-24T04:51:29;15.88;;;8.68;;
30096;SDS011;16915;51.466;3.610;2023-04-24T04:53:55;17.08;;;9.45;;
30096;SDS011;16915;51.466;3.610;2023-04-24T04:56:20;23.08;;;9.25;;
30096;SDS011;16915;51.466;3.610;2023-04-24T04:58:46;18.45;;;8.43;;
30096;SDS011;16915;51.466;3.610;2023-04-24T05:01:12;20.95;;;9.48;;
30096;SDS011;16915;51.466;3.610;2023-04-24T05:03:38;20.73;;;9.02;;
30096;SDS011;16915;51.466;3.610;2023-04-24T05:06:03;17.60;;;8.40;;
30096;SDS011;16915;51.466;3.610;2023-04-24T05:08:29;18.33;;;8.55;;
30096;SDS011;16915;51.466;3.610;2023-04-24T05:10:54;15.07;;;7.85;;
30096;SDS011;16915;51.466;3.610;2023-04-24T05:13:20;24.10;;;7.07;;
30096;SDS011;16915;51.466;3.610;2023-04-24T05:15:46;20.08;;;7.35;;
30096;SDS011;16915;51.466;3.610;2023-04-24T05:18:11;17.00;;;6.50;;
30096;SDS011;16915;51.466;3.610;2023-04-24T05:20:37;16.13;;;7.00;;
30096;SDS011;16915;51.466;3.610;2023-04-24T05:23:03;15.57;;;6.00;;
30096;SDS011;16915;51.466;3.610;2023-04-24T05:25:28;19.20;;;6.35;;
30096;SDS011;16915;51.466;3.610;2023-04-24T05:27:54;25.65;;;6.07;;
30096;SDS011;16915;51.466;3.610;2023-04-24T05:30:19;19.30;;;6.03;;
30096;SDS011;16915;51.466;3.610;2023-04-24T05:32:45;15.88;;;6.13;;
30096;SDS011;16915;51.466;3.610;2023-04-24T05:35:11;20.65;;;6.10;;
30096;SDS011;16915;51.466;3.610;2023-04-24T05:37:37;13.82;;;5.82;;
30096;SDS011;16915;51.466;3.610;2023-04-24T05:40:02;17.13;;;5.70;;
30096;SDS011;16915;51.466;3.610;2023-04-24T05:42:30;13.43;;;4.68;;
30096;SDS011;16915;51.466;3.610;2023-04-24T05:44:56;21.83;;;5.28;;
30096;SDS011;16915;51.466;3.610;2023-04-24T05:47:21;13.18;;;4.47;;
30096;SDS011;16915;51.466;3.610;2023-04-24T05:49:47;14.35;;;4.20;;
30096;SDS011;16915;51.466;3.610;2023-04-24T05:52:13;15.95;;;4.00;;
30096;SDS011;16915;51.466;3.610;2023-04-24T05:54:38;11.07;;;4.47;;
30096;SDS011;16915;51.466;3.610;2023-04-24T05:57:04;15.45;;;4.10;;
30096;SDS011;16915;51.466;3.610;2023-04-24T05:59:33;5.00;;;3.60;;
30096;SDS011;16915;51.466;3.610;2023-04-24T06:01:59;9.93;;;3.53;;
30096;SDS011;16915;51.466;3.610;2023-04-24T06:04:25;13.75;;;3.35;;
30096;SDS011;16915;51.466;3.610;2023-04-24T06:06:50;13.60;;;3.70;;
30096;SDS011;16915;51.466;3.610;2023-04-24T06:09:20;18.30;;;3.53;;
30096;SDS011;16915;51.466;3.610;2023-04-24T06:11:47;10.65;;;2.85;;
30096;SDS011;16915;51.466;3.610;2023-04-24T06:14:12;10.48;;;3.28;;
30096;SDS011;16915;51.466;3.610;2023-04-24T06:16:38;8.43;;;2.90;;
30096;SDS011;16915;51.466;3.610;2023-04-24T06:19:05;8.32;;;2.72;;
30096;SDS011;16915;51.466;3.610;2023-04-24T06:21:30;14.13;;;2.70;;
30096;SDS011;16915;51.466;3.610;2023-04-24T06:23:56;18.77;;;3.58;;
30096;SDS011;16915;51.466;3.610;2023-04-24T06:26:23;16.45;;;3.38;;
30096;SDS011;16915;51.466;3.610;2023-04-24T06:28:50;13.98;;;3.10;;
30096;SDS011;16915;51.466;3.610;2023-04-24T06:31:16;18.60;;;3.22;;
30096;SDS011;16915;51.466;3.610;2023-04-24T06:33:42;12.50;;;3.55;;
30096;SDS011;16915;51.466;3.610;2023-04-24T06:36:08;10.05;;;3.17;;
30096;SDS011;16915;51.466;3.610;2023-04-24T06:38:33;11.38;;;3.40;;
30096;SDS011;16915;51.466;3.610;2023-04-24T06:40:59;16.58;;;3.50;;
30096;SDS011;16915;51.466;3.610;2023-04-24T06:43:25;18.77;;;3.47;;
30096;SDS011;16915;51.466;3.610;2023-04-24T06:45:50;13.60;;;3.45;;
30096;SDS011;16915;51.466;3.610;2023-04-24T06:48:16;20.90;;;3.38;;
30096;SDS011;16915;51.466;3.610;2023-04-24T06:50:41;14.00;;;3.08;;
30096;SDS011;16915;51.466;3.610;2023-04-24T06:53:07;24.95;;;3.38;;
30096;SDS011;16915;51.466;3.610;2023-04-24T06:55:35;12.52;;;3.03;;
30096;SDS011;16915;51.466;3.610;2023-04-24T06:58:01;18.25;;;4.13;;
30096;SDS011;16915;51.466;3.610;2023-04-24T07:00:26;14.85;;;3.42;;
30096;SDS011;16915;51.466;3.610;2023-04-24T07:02:52;14.27;;;2.92;;
30096;SDS011;16915;51.466;3.610;2023-04-24T07:05:17;11.70;;;2.97;;
30096;SDS011;16915;51.466;3.610;2023-04-24T07:07:45;12.23;;;2.83;;
30096;SDS011;16915;51.466;3.610;2023-04-24T07:10:12;13.60;;;2.88;;
30096;SDS011;16915;51.466;3.610;2023-04-24T07:12:38;17.52;;;3.08;;
30096;SDS011;16915;51.466;3.610;2023-04-24T07:15:04;15.13;;;3.63;;
30096;SDS011;16915;51.466;3.610;2023-04-24T07:17:30;14.25;;;2.60;;
30096;SDS011;16915;51.466;3.610;2023-04-24T07:19:56;12.20;;;2.83;;
30096;SDS011;16915;51.466;3.610;2023-04-24T07:22:21;12.93;;;2.58;;
30096;SDS011;16915;51.466;3.610;2023-04-24T07:24:47;15.50;;;2.80;;
30096;SDS011;16915;51.466;3.610;2023-04-24T07:27:13;11.50;;;2.25;;
30096;SDS011;16915;51.466;3.610;2023-04-24T07:29:39;16.55;;;2.60;;
30096;SDS011;16915;51.466;3.610;2023-04-24T07:32:05;8.63;;;2.00;;
30096;SDS011;16915;51.466;3.610;2023-04-24T07:34:31;8.05;;;2.00;;
30096;SDS011;16915;51.466;3.610;2023-04-24T07:36:56;14.45;;;2.70;;
30096;SDS011;16915;51.466;3.610;2023-04-24T07:39:22;17.63;;;2.20;;
30096;SDS011;16915;51.466;3.610;2023-04-24T07:41:48;10.13;;;1.85;;
30096;SDS011;16915;51.466;3.610;2023-04-24T07:44:13;11.80;;;1.88;;
30096;SDS011;16915;51.466;3.610;2023-04-24T07:46:40;10.38;;;2.17;;
30096;SDS011;16915;51.466;3.610;2023-04-24T07:49:05;10.27;;;1.83;;
30096;SDS011;16915;51.466;3.610;2023-04-24T07:51:31;8.48;;;1.80;;
30096;SDS011;16915;51.466;3.610;2023-04-24T07:53:59;7.90;;;1.65;;
30096;SDS011;16915;51.466;3.610;2023-04-24T07:56:25;7.82;;;1.95;;
30096;SDS011;16915;51.466;3.610;2023-04-24T07:58:51;10.52;;;1.70;;
30096;SDS011;16915;51.466;3.610;2023-04-24T08:01:16;10.73;;;2.00;;
30096;SDS011;16915;51.466;3.610;2023-04-24T08:03:42;13.25;;;2.25;;
30096;SDS011;16915;51.466;3.610;2023-04-24T08:06:07;10.10;;;1.95;;
30096;SDS011;16915;51.466;3.610;2023-04-24T08:08:33;3.47;;;1.05;;
30096;SDS011;16915;51.466;3.610;2023-04-24T08:10:58;9.95;;;1.60;;
30096;SDS011;16915;51.466;3.610;2023-04-24T08:13:24;8.25;;;1.60;;
30096;SDS011;16915;51.466;3.610;2023-04-24T08:15:49;6.90;;;0.95;;
30096;SDS011;16915;51.466;3.610;2023-04-24T08:18:15;4.20;;;1.35;;
30096;SDS011;16915;51.466;3.610;2023-04-24T08:20:41;6.38;;;1.10;;
30096;SDS011;16915;51.466;3.610;2023-04-24T08:23:07;5.32;;;1.25;;
30096;SDS011;16915;51.466;3.610;2023-04-24T08:25:32;5.57;;;1.40;;
30096;SDS011;16915;51.466;3.610;2023-04-24T08:28:00;6.00;;;1.25;;
30096;SDS011;16915;51.466;3.610;2023-04-24T08:30:26;11.23;;;1.20;;
30096;SDS011;16915;51.466;3.610;2023-04-24T08:32:52;8.70;;;1.50;;
30096;SDS011;16915;51.466;3.610;2023-04-24T08:35:18;6.95;;;1.77;;
30096;SDS011;16915;51.466;3.610;2023-04-24T08:37:43;7.53;;;1.35;;
30096;SDS011;16915;51.466;3.610;2023-04-24T08:40:13;6.78;;;1.05;;
30096;SDS011;16915;51.466;3.610;2023-04-24T08:42:41;7.20;;;1.13;;
30096;SDS011;16915;51.466;3.610;2023-04-24T08:45:11;4.57;;;0.80;;
30096;SDS011;16915;51.466;3.610;2023-04-24T08:47:38;7.97;;;1.35;;
30096;SDS011;16915;51.466;3.610;2023-04-24T08:50:05;7.15;;;1.10;;
30096;SDS011;16915;51.466;3.610;2023-04-24T08:52:32;4.07;;;0.80;;
30096;SDS011;16915;51.466;3.610;2023-04-24T08:54:59;5.85;;;0.95;;
30096;SDS011;16915;51.466;3.610;2023-04-24T08:57:26;3.45;;;0.80;;
30096;SDS011;16915;51.466;3.610;2023-04-24T08:59:52;6.53;;;0.55;;
30096;SDS011;16915;51.466;3.610;2023-04-24T09:02:19;3.67;;;0.60;;
30096;SDS011;16915;51.466;3.610;2023-04-24T09:04:46;10.05;;;0.80;;
30096;SDS011;16915;51.466;3.610;2023-04-24T09:07:12;3.90;;;0.70;;
30096;SDS011;16915;51.466;3.610;2023-04-24T09:09:41;5.10;;;0.57;;
30096;SDS011;16915;51.466;3.610;2023-04-24T09:12:07;4.95;;;0.88;;
30096;SDS011;16915;51.466;3.610;2023-04-24T09:14:34;6.85;;;0.80;;
30096;SDS011;16915;51.466;3.610;2023-04-24T09:17:03;2.88;;;0.65;;
30096;SDS011;16915;51.466;3.610;2023-04-24T09:19:29;3.25;;;0.82;;
30096;SDS011;16915;51.466;3.610;2023-04-24T09:21:55;2.80;;;0.88;;
30096;SDS011;16915;51.466;3.610;2023-04-24T09:24:21;6.30;;;0.60;;
30096;SDS011;16915;51.466;3.610;2023-04-24T09:26:58;3.90;;;0.75;;
30096;SDS011;16915;51.466;3.610;2023-04-24T09:29:26;1.38;;;0.60;;
30096;SDS011;16915;51.466;3.610;2023-04-24T09:31:52;3.15;;;0.60;;
30096;SDS011;16915;51.466;3.610;2023-04-24T09:34:35;3.78;;;0.80;;
30096;SDS011;16915;51.466;3.610;2023-04-24T09:37:01;2.75;;;0.60;;
30096;SDS011;16915;51.466;3.610;2023-04-24T09:39:26;6.43;;;0.70;;
30096;SDS011;16915;51.466;3.610;2023-04-24T09:41:55;3.30;;;0.40;;
30096;SDS011;16915;51.466;3.610;2023-04-24T09:44:26;6.50;;;0.75;;
30096;SDS011;16915;51.466;3.610;2023-04-24T09:46:53;3.38;;;0.50;;
30096;SDS011;16915;51.466;3.610;2023-04-24T09:49:23;3.10;;;0.57;;
30096;SDS011;16915;51.466;3.610;2023-04-24T09:51:50;3.05;;;0.40;;
30096;SDS011;16915;51.466;3.610;2023-04-24T09:54:17;1.40;;;0.55;;
30096;SDS011;16915;51.466;3.610;2023-04-24T09:56:47;2.17;;;0.73;;
30096;SDS011;16915;51.466;3.610;2023-04-24T09:59:14;3.00;;;0.45;;
30096;SDS011;16915;51.466;3.610;2023-04-24T10:01:41;4.88;;;0.80;;
30096;SDS011;16915;51.466;3.610;2023-04-24T10:04:53;2.00;;;0.52;;
30096;SDS011;16915;51.466;3.610;2023-04-24T10:07:01;3.58;;;0.77;;
30096;SDS011;16915;51.466;3.610;2023-04-24T10:09:31;4.03;;;0.90;;
30096;SDS011;16915;51.466;3.610;2023-04-24T10:11:57;3.78;;;0.93;;
30096;SDS011;16915;51.466;3.610;2023-04-24T10:14:24;3.38;;;0.60;;
30096;SDS011;16915;51.466;3.610;2023-04-24T10:16:54;4.40;;;0.57;;
30096;SDS011;16915;51.466;3.610;2023-04-24T10:19:21;3.00;;;0.50;;
30096;SDS011;16915;51.466;3.610;2023-04-24T10:21:51;3.10;;;0.50;;
30096;SDS011;16915;51.466;3.610;2023-04-24T10:24:17;2.17;;;0.50;;
30096;SDS011;16915;51.466;3.610;2023-04-24T10:26:46;3.75;;;0.77;;
30096;SDS011;16915;51.466;3.610;2023-04-24T10:29:17;3.08;;;0.40;;
30096;SDS011;16915;51.466;3.610;2023-04-24T10:31:44;4.32;;;0.80;;
30096;SDS011;16915;51.466;3.610;2023-04-24T10:34:13;3.13;;;0.70;;
30096;SDS011;16915;51.466;3.610;2023-04-24T10:36:48;4.05;;;0.80;;
30096;SDS011;16915;51.466;3.610;2023-04-24T10:39:16;1.38;;;0.45;;
30096;SDS011;16915;51.466;3.610;2023-04-24T10:41:43;1.35;;;0.50;;
30096;SDS011;16915;51.466;3.610;2023-04-24T10:44:13;2.70;;;0.70;;
30096;SDS011;16915;51.466;3.610;2023-04-24T10:46:46;1.65;;;0.55;;
30096;SDS011;16915;51.466;3.610;2023-04-24T10:49:17;3.13;;;0.57;;
30096;SDS011;16915;51.466;3.610;2023-04-24T10:51:53;1.83;;;0.60;;
30096;SDS011;16915;51.466;3.610;2023-04-24T10:54:25;2.72;;;0.50;;
30096;SDS011;16915;51.466;3.610;2023-04-24T10:59:43;2.08;;;0.63;;
30096;SDS011;16915;51.466;3.610;2023-04-24T11:02:09;4.07;;;0.68;;
30096;SDS011;16915;51.466;3.610;2023-04-24T11:04:35;4.07;;;0.50;;
30096;SDS011;16915;51.466;3.610;2023-04-24T11:07:02;4.68;;;0.73;;
30096;SDS011;16915;51.466;3.610;2023-04-24T11:09:28;1.90;;;0.57;;
30096;SDS011;16915;51.466;3.610;2023-04-24T11:12:05;2.30;;;0.52;;
30096;SDS011;16915;51.466;3.610;2023-04-24T11:15:16;2.88;;;0.65;;
30096;SDS011;16915;51.466;3.610;2023-04-24T11:17:28;2.65;;;0.70;;
30096;SDS011;16915;51.466;3.610;2023-04-24T11:20:10;4.47;;;2.80;;
30096;SDS011;16915;51.466;3.610;2023-04-24T11:22:37;4.32;;;0.70;;
30096;SDS011;16915;51.466;3.610;2023-04-24T11:25:07;5.33;;;0.87;;
30096;SDS011;16915;51.466;3.610;2023-04-24T11:27:40;7.90;;;0.60;;
30096;SDS011;16915;51.466;3.610;2023-04-24T11:30:08;3.47;;;0.82;;
30096;SDS011;16915;51.466;3.610;2023-04-24T11:32:43;2.08;;;1.00;;
30096;SDS011;16915;51.466;3.610;2023-04-24T11:35:14;2.67;;;0.60;;
30096;SDS011;16915;51.466;3.610;2023-04-24T11:37:42;4.22;;;0.60;;
30096;SDS011;16915;51.466;3.610;2023-04-24T11:40:11;3.35;;;1.00;;
30096;SDS011;16915;51.466;3.610;2023-04-24T11:42:38;1.77;;;1.00;;
30096;SDS011;16915;51.466;3.610;2023-04-24T11:45:09;2.35;;;0.90;;
30096;SDS011;16915;51.466;3.610;2023-04-24T11:50:03;2.08;;;0.80;;
30096;SDS011;16915;51.466;3.610;2023-04-24T11:52:31;1.80;;;0.98;;
30096;SDS011;16915;51.466;3.610;2023-04-24T11:54:56;7.28;;;0.73;;
30096;SDS011;16915;51.466;3.610;2023-04-24T11:57:23;3.00;;;0.80;;
30096;SDS011;16915;51.466;3.610;2023-04-24T11:59:52;3.72;;;0.80;;
30096;SDS011;16915;51.466;3.610;2023-04-24T12:02:22;1.90;;;0.60;;
30096;SDS011;16915;51.466;3.610;2023-04-24T12:04:48;3.28;;;0.60;;
30096;SDS011;16915;51.466;3.610;2023-04-24T12:07:13;2.05;;;0.60;;
30096;SDS011;16915;51.466;3.610;2023-04-24T12:09:40;3.15;;;0.50;;
30096;SDS011;16915;51.466;3.610;2023-04-24T12:12:07;3.40;;;0.63;;
30096;SDS011;16915;51.466;3.610;2023-04-24T12:14:33;2.30;;;0.70;;
30096;SDS011;16915;51.466;3.610;2023-04-24T12:17:12;3.17;;;0.90;;
30096;SDS011;16915;51.466;3.610;2023-04-24T12:19:37;3.28;;;0.95;;
30096;SDS011;16915;51.466;3.610;2023-04-24T12:22:09;1.67;;;0.80;;
30096;SDS011;16915;51.466;3.610;2023-04-24T12:24:35;2.97;;;0.88;;
30096;SDS011;16915;51.466;3.610;2023-04-24T12:27:00;2.60;;;0.68;;
30096;SDS011;16915;51.466;3.610;2023-04-24T12:29:26;2.50;;;1.20;;
30096;SDS011;16915;51.466;3.610;2023-04-24T12:31:52;2.80;;;0.80;;
30096;SDS011;16915;51.466;3.610;2023-04-24T12:34:18;2.38;;;1.10;;
30096;SDS011;16915;51.466;3.610;2023-04-24T12:36:47;4.03;;;0.88;;
30096;SDS011;16915;51.466;3.610;2023-04-24T12:39:17;5.30;;;0.77;;
30096;SDS011;16915;51.466;3.610;2023-04-24T12:41:50;3.13;;;1.33;;
30096;SDS011;16915;51.466;3.610;2023-04-24T12:44:28;3.33;;;1.00;;
30096;SDS011;16915;51.466;3.610;2023-04-24T12:46:59;4.90;;;1.10;;
30096;SDS011;16915;51.466;3.610;2023-04-24T12:49:25;3.95;;;1.35;;
30096;SDS011;16915;51.466;3.610;2023-04-24T12:51:51;1.83;;;0.88;;
30096;SDS011;16915;51.466;3.610;2023-04-24T12:54:17;2.95;;;1.08;;
30096;SDS011;16915;51.466;3.610;2023-04-24T12:56:42;5.80;;;1.45;;
30096;SDS011;16915;51.466;3.610;2023-04-24T12:59:08;3.17;;;1.17;;
30096;SDS011;16915;51.466;3.610;2023-04-24T13:01:33;5.38;;;1.33;;
30096;SDS011;16915;51.466;3.610;2023-04-24T13:03:59;2.70;;;1.10;;
30096;SDS011;16915;51.466;3.610;2023-04-24T13:06:25;4.85;;;1.17;;
30096;SDS011;16915;51.466;3.610;2023-04-24T13:08:51;3.47;;;1.00;;
30096;SDS011;16915;51.466;3.610;2023-04-24T13:11:17;3.35;;;1.42;;
30096;SDS011;16915;51.466;3.610;2023-04-24T13:13:43;1.48;;;0.73;;
30096;SDS011;16915;51.466;3.610;2023-04-24T13:16:08;3.47;;;0.88;;
30096;SDS011;16915;51.466;3.610;2023-04-24T13:18:34;4.03;;;1.15;;
30096;SDS011;16915;51.466;3.610;2023-04-24T13:21:00;3.83;;;1.17;;
30096;SDS011;16915;51.466;3.610;2023-04-24T13:23:25;5.35;;;1.23;;
30096;SDS011;16915;51.466;3.610;2023-04-24T13:25:51;4.53;;;1.20;;
30096;SDS011;16915;51.466;3.610;2023-04-24T13:28:16;6.30;;;0.98;;
30096;SDS011;16915;51.466;3.610;2023-04-24T13:30:43;2.90;;;1.00;;
30096;SDS011;16915;51.466;3.610;2023-04-24T13:33:08;3.17;;;1.15;;
30096;SDS011;16915;51.466;3.610;2023-04-24T13:35:34;2.78;;;1.02;;
30096;SDS011;16915;51.466;3.610;2023-04-24T13:37:59;5.22;;;1.50;;
30096;SDS011;16915;51.466;3.610;2023-04-24T13:40:26;2.78;;;1.05;;
30096;SDS011;16915;51.466;3.610;2023-04-24T13:42:52;2.28;;;1.20;;
30096;SDS011;16915;51.466;3.610;2023-04-24T13:45:17;4.03;;;1.30;;
30096;SDS011;16915;51.466;3.610;2023-04-24T13:47:43;4.22;;;1.27;;
30096;SDS011;16915;51.466;3.610;2023-04-24T13:50:09;3.15;;;1.05;;
30096;SDS011;16915;51.466;3.610;2023-04-24T13:52:35;3.03;;;1.70;;
30096;SDS011;16915;51.466;3.610;2023-04-24T13:55:00;6.45;;;1.40;;
30096;SDS011;16915;51.466;3.610;2023-04-24T13:57:26;3.17;;;1.30;;
30096;SDS011;16915;51.466;3.610;2023-04-24T13:59:53;3.95;;;1.80;;
30096;SDS011;16915;51.466;3.610;2023-04-24T14:02:20;4.88;;;1.35;;
30096;SDS011;16915;51.466;3.610;2023-04-24T14:04:46;3.65;;;1.33;;
30096;SDS011;16915;51.466;3.610;2023-04-24T14:07:13;3.58;;;1.35;;
30096;SDS011;16915;51.466;3.610;2023-04-24T14:09:38;3.17;;;1.60;;
30096;SDS011;16915;51.466;3.610;2023-04-24T14:12:04;4.38;;;1.65;;
30096;SDS011;16915;51.466;3.610;2023-04-24T14:14:30;1.90;;;1.10;;
30096;SDS011;16915;51.466;3.610;2023-04-24T14:16:56;2.80;;;1.25;;
30096;SDS011;16915;51.466;3.610;2023-04-24T14:19:22;6.80;;;1.92;;
30096;SDS011;16915;51.466;3.610;2023-04-24T14:21:47;2.70;;;1.60;;
30096;SDS011;16915;51.466;3.610;2023-04-24T14:24:13;2.85;;;1.48;;
30096;SDS011;16915;51.466;3.610;2023-04-24T14:26:39;3.20;;;1.25;;
30096;SDS011;16915;51.466;3.610;2023-04-24T14:29:04;2.83;;;1.25;;
30096;SDS011;16915;51.466;3.610;2023-04-24T14:31:30;2.88;;;1.23;;
30096;SDS011;16915;51.466;3.610;2023-04-24T14:33:56;4.50;;;1.30;;
30096;SDS011;16915;51.466;3.610;2023-04-24T14:36:22;2.65;;;1.30;;
30096;SDS011;16915;51.466;3.610;2023-04-24T14:38:48;4.82;;;1.45;;
30096;SDS011;16915;51.466;3.610;2023-04-24T14:41:14;2.30;;;1.77;;
30096;SDS011;16915;51.466;3.610;2023-04-24T14:43:39;3.00;;;1.15;;
30096;SDS011;16915;51.466;3.610;2023-04-24T14:46:05;4.35;;;1.35;;